createdAt,value
2019-05-01T00:00:50.230Z,38.33
2019-05-01T00:03:20.175Z,39.07
2019-05-01T00:05:50.095Z,44.80
2019-05-01T00:08:20.060Z,39.63
2019-05-01T00:10:49.990Z,38.63
2019-05-01T00:13:20.260Z,42.03
2019-05-01T00:15:50.196Z,38.43
2019-05-01T00:18:20.135Z,40.30
2019-05-01T00:20:50.061Z,38.80
2019-05-01T00:23:19.996Z,37.20
2019-05-01T00:25:49.956Z,41.07
2019-05-01T00:28:20.259Z,41.13
2019-05-01T00:30:50.194Z,47.23
2019-05-01T00:33:20.133Z,36.87
2019-05-01T00:35:50.054Z,37.97
2019-05-01T00:38:19.995Z,39.57
2019-05-01T00:40:50.334Z,36.80
2019-05-01T00:43:20.546Z,38.80
2019-05-01T00:45:50.467Z,37.97
2019-05-01T00:48:20.423Z,41.30
2019-05-01T00:50:50.336Z,38.43
2019-05-01T00:53:20.365Z,36.33
2019-05-01T00:58:29.994Z,33.97
2019-05-01T01:01:00.179Z,37.13
2019-05-01T01:03:30.122Z,39.73
2019-05-01T01:06:00.062Z,38.50
2019-05-01T01:08:30.005Z,40.53
2019-05-01T01:10:59.931Z,35.00
2019-05-01T01:13:29.860Z,40.43
2019-05-01T01:15:59.788Z,34.67
2019-05-01T01:18:29.720Z,35.93
2019-05-01T01:23:39.006Z,37.90
2019-05-01T01:26:09.246Z,40.53
2019-05-01T01:28:39.471Z,38.20
2019-05-01T01:31:09.689Z,41.40
2019-05-01T01:33:39.649Z,38.90
2019-05-01T01:36:09.923Z,38.30
2019-05-01T01:38:39.854Z,39.27
2019-05-01T01:41:10.051Z,38.67
2019-05-01T01:43:40.008Z,39.47
2019-05-01T01:48:49.643Z,39.17
2019-05-01T01:51:19.855Z,37.93
2019-05-01T01:53:49.786Z,37.20
2019-05-01T01:56:19.704Z,39.17
2019-05-01T01:58:49.654Z,40.37
2019-05-01T02:01:19.947Z,40.20
2019-05-01T02:03:50.048Z,38.80
2019-05-01T02:06:19.977Z,41.33
2019-05-01T02:08:56.184Z,41.20
2019-05-01T02:11:20.178Z,41.83
2019-05-01T02:13:50.097Z,39.67
2019-05-01T02:16:20.032Z,41.23
2019-05-01T02:18:50.222Z,42.57
2019-05-01T02:21:20.165Z,39.07
2019-05-01T02:23:50.359Z,42.03
2019-05-01T02:26:20.568Z,42.70
2019-05-01T02:28:50.494Z,43.27
2019-05-01T02:31:28.589Z,43.03
2019-05-01T02:33:50.626Z,40.73
2019-05-01T02:36:20.568Z,41.13
2019-05-01T02:38:50.501Z,38.83
2019-05-01T02:41:20.437Z,48.20
2019-05-01T02:43:50.358Z,41.80
2019-05-01T02:46:20.293Z,41.80
2019-05-01T02:52:00.022Z,41.17
2019-05-01T02:54:29.928Z,42.10
2019-05-01T02:56:59.852Z,44.87
2019-05-01T02:59:29.809Z,38.40
2019-05-01T03:02:00.031Z,44.50
2019-05-01T03:04:30.242Z,37.73
2019-05-01T03:07:00.192Z,41.33
2019-05-01T03:09:30.095Z,43.20
2019-05-01T03:12:00.035Z,40.00
2019-05-01T03:14:30.306Z,39.20
2019-05-01T03:17:00.509Z,41.50
2019-05-01T03:19:30.447Z,41.37
2019-05-01T03:22:00.750Z,41.53
2019-05-01T03:24:30.683Z,38.60
2019-05-01T03:27:00.614Z,39.67
2019-05-01T03:32:18.313Z,42.20
2019-05-01T03:34:39.823Z,44.70
2019-05-01T03:37:09.776Z,39.33
2019-05-01T03:42:19.040Z,41.53
2019-05-01T03:44:48.962Z,39.63
2019-05-01T03:49:58.272Z,43.23
2019-05-01T03:52:28.222Z,39.23
2019-05-01T03:54:58.135Z,36.77
2019-05-01T03:57:28.101Z,40.17
2019-05-01T04:02:37.356Z,38.83
2019-05-01T04:05:07.570Z,41.93
2019-05-01T04:07:37.789Z,36.40
2019-05-01T04:10:07.701Z,42.10
2019-05-01T04:12:37.648Z,42.00
2019-05-01T04:17:46.896Z,41.07
2019-05-01T04:20:16.874Z,42.33
2019-05-01T04:22:46.809Z,35.60
2019-05-01T04:27:58.719Z,38.03
2019-05-01T04:30:26.014Z,40.43
2019-05-01T04:32:55.946Z,38.37
2019-05-01T04:38:05.521Z,38.63
2019-05-01T04:40:36.778Z,40.10
2019-05-01T04:43:05.960Z,36.13
2019-05-01T04:48:15.221Z,41.07
2019-05-01T04:50:45.145Z,37.57
2019-05-01T04:53:15.081Z,43.00
2019-05-01T04:55:45.356Z,41.60
2019-05-01T04:58:15.582Z,35.97
2019-05-01T05:00:45.794Z,39.17
2019-05-01T05:03:15.992Z,40.83
2019-05-01T05:05:46.232Z,39.87
2019-05-01T05:08:16.453Z,36.73
2019-05-01T05:13:26.017Z,37.90
2019-05-01T05:15:56.237Z,40.60
2019-05-01T05:18:26.170Z,35.70
2019-05-01T05:20:56.100Z,39.43
2019-05-01T05:23:26.029Z,34.93
2019-05-01T05:25:55.945Z,38.03
2019-05-01T05:28:25.912Z,39.30
2019-05-01T05:33:35.172Z,35.57
2019-05-01T05:36:05.100Z,39.10
2019-05-01T05:38:35.377Z,35.87
2019-05-01T05:43:44.936Z,34.23
2019-05-01T05:46:14.887Z,37.73
2019-05-01T05:48:44.832Z,38.53
2019-05-01T05:51:14.764Z,36.07
2019-05-01T05:53:44.998Z,34.37
2019-05-01T05:56:18.483Z,37.57
2019-05-01T05:58:48.414Z,33.70
2019-05-01T06:01:18.633Z,38.27
2019-05-01T06:03:48.574Z,35.93
2019-05-01T06:09:00.530Z,35.43
2019-05-01T06:11:33.954Z,35.27
2019-05-01T06:14:00.390Z,36.17
2019-05-01T06:16:30.325Z,35.13
2019-05-01T06:19:00.270Z,33.97
2019-05-01T06:24:09.904Z,37.77
2019-05-01T06:26:39.808Z,36.13
2019-05-01T06:29:09.746Z,34.10
2019-05-01T06:31:39.666Z,35.83
2019-05-01T06:34:09.950Z,35.37
2019-05-01T06:36:44.361Z,32.57
2019-05-01T06:39:11.858Z,34.20
2019-05-01T06:41:42.661Z,34.43
2019-05-01T06:46:49.354Z,35.20
2019-05-01T06:49:19.297Z,32.23
2019-05-01T06:51:53.358Z,30.73
2019-05-01T06:56:58.844Z,32.67
2019-05-01T06:59:31.280Z,31.33
2019-05-01T07:02:00.260Z,34.33
2019-05-01T07:04:32.531Z,29.20
2019-05-01T07:07:01.948Z,29.17
2019-05-01T07:09:29.204Z,27.53
2019-05-01T07:11:59.126Z,31.10
2019-05-01T07:17:13.140Z,28.17
2019-05-01T07:19:40.310Z,29.17
2019-05-01T07:22:08.634Z,26.97
2019-05-01T07:24:38.573Z,34.30
2019-05-01T07:27:08.505Z,30.63
2019-05-01T07:32:18.119Z,29.63
2019-05-01T07:37:27.812Z,25.80
2019-05-01T07:39:57.633Z,24.57
2019-05-01T07:42:27.876Z,25.40
2019-05-01T07:44:57.802Z,24.73
2019-05-01T07:47:30.475Z,20.67
2019-05-01T07:52:37.017Z,24.67
2019-05-01T07:57:46.584Z,22.23
2019-05-01T08:00:16.533Z,26.63
2019-05-01T08:02:46.822Z,21.53
2019-05-01T08:07:56.094Z,20.50
2019-05-01T08:10:30.838Z,22.43
2019-05-01T08:13:00.430Z,20.03
2019-05-01T08:15:27.294Z,22.57
2019-05-01T08:17:56.380Z,18.87
2019-05-01T08:20:26.666Z,19.40
2019-05-01T08:22:56.892Z,17.70
2019-05-01T08:25:28.644Z,15.37
2019-05-01T08:27:58.129Z,15.57
2019-05-01T08:30:27.002Z,13.00
2019-05-01T08:32:57.244Z,13.57
2019-05-01T08:35:27.210Z,14.17
2019-05-01T08:37:58.608Z,15.03
2019-05-01T08:43:06.738Z,12.70
2019-05-01T08:48:16.318Z,14.65
2019-05-01T08:50:46.243Z,12.43
2019-05-01T08:53:18.158Z,11.25
2019-05-01T08:55:47.130Z,12.75
2019-05-01T09:00:55.112Z,12.07
2019-05-01T09:03:25.287Z,10.78
2019-05-01T09:08:34.560Z,12.75
2019-05-01T09:11:04.508Z,9.95
2019-05-01T09:13:34.435Z,16.60
2019-05-01T09:18:43.725Z,13.40
2019-05-01T09:21:14.923Z,11.03
2019-05-01T09:23:46.142Z,9.00
2019-05-01T09:26:16.283Z,11.78
2019-05-01T09:28:45.125Z,10.75
2019-05-01T09:31:15.054Z,10.72
2019-05-01T09:33:44.982Z,8.85
2019-05-01T09:36:15.255Z,9.38
2019-05-01T09:38:45.178Z,11.12
2019-05-01T09:41:15.488Z,8.03
2019-05-01T09:43:45.407Z,6.05
2019-05-01T09:46:15.834Z,6.20
2019-05-01T09:48:45.776Z,8.18
2019-05-01T09:51:16.066Z,8.60
2019-05-01T09:53:46.018Z,7.42
2019-05-01T09:56:15.942Z,5.62
2019-05-01T09:58:45.859Z,7.05
2019-05-01T10:01:16.098Z,9.43
2019-05-01T10:03:49.585Z,7.92
2019-05-01T10:06:17.186Z,8.93
2019-05-01T10:08:46.164Z,8.63
2019-05-01T10:13:58.406Z,10.08
2019-05-01T10:16:25.471Z,10.70
2019-05-01T10:18:55.432Z,10.23
2019-05-01T10:21:27.325Z,8.25
2019-05-01T10:23:55.709Z,8.28
2019-05-01T10:26:25.666Z,9.40
2019-05-01T10:28:55.613Z,7.92
2019-05-01T10:34:07.670Z,11.28
2019-05-01T10:36:34.877Z,9.23
2019-05-01T10:39:05.209Z,8.35
2019-05-01T10:41:35.147Z,11.63
2019-05-01T10:44:05.446Z,8.68
2019-05-01T10:49:14.738Z,8.18
2019-05-01T10:51:44.684Z,9.88
2019-05-01T10:54:15.052Z,9.30
2019-05-01T10:56:45.375Z,9.58
2019-05-01T10:59:15.335Z,11.45
2019-05-01T11:01:45.532Z,12.75
2019-05-01T11:04:15.491Z,12.28
2019-05-01T11:06:45.743Z,10.98
2019-05-01T11:09:16.053Z,12.07
2019-05-01T11:11:46.374Z,11.08
2019-05-01T11:14:16.735Z,11.90
2019-05-01T11:16:47.018Z,12.00
2019-05-01T11:19:17.011Z,13.95
2019-05-01T11:21:47.104Z,12.63
2019-05-01T11:24:17.025Z,13.05
2019-05-01T11:26:47.268Z,11.60
2019-05-01T11:29:17.251Z,12.83
2019-05-01T11:31:47.460Z,12.47
2019-05-01T11:34:17.430Z,11.38
2019-05-01T11:36:47.355Z,13.43
2019-05-01T11:39:17.306Z,16.87
2019-05-01T11:41:47.242Z,11.28
2019-05-01T11:44:17.207Z,12.03
2019-05-01T11:46:47.148Z,11.63
2019-05-01T11:49:17.087Z,14.35
2019-05-01T11:51:47.347Z,13.50
2019-05-01T11:54:17.299Z,10.10
2019-05-01T11:56:47.226Z,12.03
2019-05-01T11:59:17.176Z,13.50
2019-05-01T12:01:47.109Z,14.20
2019-05-01T12:04:17.431Z,12.43
2019-05-01T12:06:47.369Z,13.85
2019-05-01T12:09:17.309Z,12.00
2019-05-01T12:11:47.243Z,10.93
2019-05-01T12:14:17.574Z,12.20
2019-05-01T12:16:47.505Z,12.00
2019-05-01T12:19:17.716Z,12.47
2019-05-01T12:21:47.945Z,12.33
2019-05-01T12:24:17.894Z,13.18
2019-05-01T12:26:48.163Z,10.63
2019-05-01T12:29:18.383Z,12.00
2019-05-01T12:31:48.603Z,12.03
2019-05-01T12:34:18.569Z,20.43
2019-05-01T12:39:27.835Z,11.63
2019-05-01T12:41:57.783Z,12.07
2019-05-01T12:44:28.003Z,12.85
2019-05-01T12:46:57.927Z,12.88
2019-05-01T12:49:28.164Z,11.38
2019-05-01T12:52:09.794Z,12.95
2019-05-01T12:57:07.615Z,12.75
2019-05-01T12:59:37.561Z,11.53
2019-05-01T13:02:07.474Z,9.90
2019-05-01T13:04:37.768Z,11.73
2019-05-01T13:07:07.702Z,8.88
2019-05-01T13:09:38.016Z,10.90
2019-05-01T13:12:07.951Z,12.73
2019-05-01T13:14:37.953Z,9.95
2019-05-01T13:17:07.881Z,12.43
2019-05-01T13:22:17.170Z,13.15
2019-05-01T13:24:47.721Z,14.60
2019-05-01T13:27:17.964Z,12.23
2019-05-01T13:29:47.994Z,11.57
2019-05-01T13:32:18.378Z,13.28
2019-05-01T13:34:48.340Z,13.25
2019-05-01T13:37:18.625Z,12.75
2019-05-01T13:39:48.562Z,10.95
2019-05-01T13:42:18.549Z,11.73
2019-05-01T13:44:48.867Z,12.47
2019-05-01T13:47:18.871Z,12.15
2019-05-01T13:49:49.072Z,13.85
2019-05-01T13:52:19.005Z,15.15
2019-05-01T13:54:48.993Z,15.78
2019-05-01T13:57:18.980Z,13.43
2019-05-01T13:59:49.262Z,14.13
2019-05-01T14:02:19.203Z,14.33
2019-05-01T14:04:49.494Z,14.13
2019-05-01T14:07:19.458Z,13.38
2019-05-01T14:09:49.438Z,13.55
2019-05-01T14:12:19.541Z,13.88
2019-05-01T14:14:49.506Z,12.73
2019-05-01T14:17:19.463Z,12.75
2019-05-01T14:19:49.407Z,12.90
2019-05-01T14:22:19.368Z,14.33
2019-05-01T14:24:49.292Z,13.03
2019-05-01T14:27:19.553Z,13.35
2019-05-01T14:29:49.479Z,12.93
2019-05-01T14:32:19.784Z,14.23
2019-05-01T14:34:49.732Z,13.38
2019-05-01T14:37:29.566Z,13.98
2019-05-01T14:39:49.619Z,14.23
2019-05-01T14:42:20.966Z,15.95
2019-05-01T14:44:51.189Z,15.13
2019-05-01T14:47:21.160Z,15.50
2019-05-01T14:49:51.439Z,13.72
2019-05-01T14:52:21.399Z,15.28
2019-05-01T14:54:51.659Z,16.15
2019-05-01T14:57:21.607Z,15.48
2019-05-01T14:59:51.570Z,14.83
2019-05-01T15:02:21.807Z,16.93
2019-05-01T15:04:52.054Z,15.63
2019-05-01T15:07:22.360Z,14.33
2019-05-01T15:09:52.290Z,14.73
2019-05-01T15:12:22.238Z,14.65
2019-05-01T15:14:52.523Z,14.75
2019-05-01T15:17:22.831Z,14.20
2019-05-01T15:19:53.041Z,14.33
2019-05-01T15:22:22.981Z,15.10
2019-05-01T15:24:52.923Z,14.40
2019-05-01T15:27:22.867Z,13.13
2019-05-01T15:29:52.800Z,16.65
2019-05-01T15:32:22.737Z,18.05
2019-05-01T15:37:31.998Z,15.65
2019-05-01T15:40:01.929Z,15.88
2019-05-01T15:42:31.869Z,17.82
2019-05-01T15:45:01.807Z,17.77
2019-05-01T15:47:31.764Z,16.25
2019-05-01T15:50:01.697Z,17.62
2019-05-01T15:52:31.643Z,17.85
2019-05-01T15:55:01.895Z,16.12
2019-05-01T15:57:31.849Z,20.52
2019-05-01T16:00:02.117Z,17.85
2019-05-01T16:02:32.431Z,17.10
2019-05-01T16:05:02.646Z,16.52
2019-05-01T16:07:32.598Z,16.48
2019-05-01T16:10:02.908Z,15.13
2019-05-01T16:12:32.855Z,15.23
2019-05-01T16:15:02.776Z,16.65
2019-05-01T16:17:33.041Z,17.12
2019-05-01T16:20:03.255Z,16.55
2019-05-01T16:22:33.199Z,19.32
2019-05-01T16:25:03.147Z,18.05
2019-05-01T16:27:33.403Z,16.30
2019-05-01T16:30:03.344Z,16.73
2019-05-01T16:32:33.652Z,15.03
2019-05-01T16:37:43.218Z,16.00
2019-05-01T16:40:13.155Z,14.23
2019-05-01T16:42:43.083Z,16.07
2019-05-01T16:45:13.342Z,18.48
2019-05-01T16:47:43.334Z,15.93
2019-05-01T16:52:53.034Z,14.05
2019-05-01T16:58:02.312Z,16.27
2019-05-01T17:01:02.595Z,16.27
2019-05-01T17:03:32.838Z,16.48
2019-05-01T17:08:42.107Z,15.18
2019-05-01T17:11:12.040Z,15.28
2019-05-01T17:13:42.109Z,14.78
2019-05-01T17:16:12.420Z,15.30
2019-05-01T17:18:42.634Z,14.20
2019-05-01T17:21:12.861Z,14.63
2019-05-01T17:23:42.809Z,16.05
2019-05-01T17:26:12.738Z,16.87
2019-05-01T17:31:22.654Z,15.18
2019-05-01T17:33:55.478Z,16.32
2019-05-01T17:36:22.635Z,16.30
2019-05-01T17:38:52.568Z,16.42
2019-05-01T17:41:26.542Z,15.03
2019-05-01T17:43:52.446Z,18.48
2019-05-01T17:46:22.375Z,15.18
2019-05-01T17:48:52.316Z,16.67
2019-05-01T17:51:22.563Z,15.80
2019-05-01T17:53:52.796Z,16.65
2019-05-01T17:56:28.114Z,20.35
2019-05-01T17:58:53.224Z,15.75
2019-05-01T18:01:27.716Z,15.08
2019-05-01T18:03:53.462Z,15.18
2019-05-01T18:06:23.686Z,15.58
2019-05-01T18:09:02.841Z,15.88
2019-05-01T18:11:23.924Z,17.15
2019-05-01T18:13:54.130Z,16.95
2019-05-01T18:16:24.352Z,14.55
2019-05-01T18:18:54.575Z,16.15
2019-05-01T18:21:24.799Z,14.40
2019-05-01T18:23:54.742Z,14.00
2019-05-01T18:26:24.928Z,15.13
2019-05-01T18:28:55.259Z,17.15
2019-05-01T18:31:27.938Z,16.55
2019-05-01T18:33:56.892Z,17.48
2019-05-01T18:36:25.796Z,15.60
2019-05-01T18:38:55.647Z,16.32
2019-05-01T18:41:25.848Z,15.83
2019-05-01T18:43:55.824Z,17.42
2019-05-01T18:46:25.755Z,14.98
2019-05-01T18:48:55.680Z,15.75
2019-05-01T18:51:25.650Z,14.70
2019-05-01T18:59:14.594Z,14.98
2019-05-01T19:01:48.448Z,14.25
2019-05-01T19:06:54.180Z,15.10
2019-05-01T19:09:30.299Z,14.03
2019-05-01T19:11:54.063Z,15.40
2019-05-01T19:14:28.661Z,15.65
2019-05-01T19:16:54.242Z,15.88
2019-05-01T19:19:24.221Z,15.83
2019-05-01T19:24:38.141Z,16.62
2019-05-01T19:27:03.567Z,15.03
2019-05-01T19:29:33.906Z,14.40
2019-05-01T19:32:03.447Z,15.18
2019-05-01T19:37:16.377Z,16.23
2019-05-01T19:39:44.260Z,17.00
2019-05-01T19:42:13.938Z,15.15
2019-05-01T19:44:43.886Z,16.10
2019-05-01T19:47:13.899Z,16.95
2019-05-01T19:49:43.756Z,17.65
2019-05-01T19:52:13.694Z,18.15
2019-05-01T19:54:43.618Z,17.10
2019-05-01T19:57:13.828Z,16.93
2019-05-01T19:59:44.078Z,17.57
2019-05-01T20:02:17.216Z,20.32
2019-05-01T20:07:23.629Z,17.07
2019-05-01T20:09:56.958Z,17.60
2019-05-01T20:12:23.498Z,16.80
2019-05-01T20:14:53.436Z,19.02
2019-05-01T20:17:23.691Z,20.57
2019-05-01T20:19:53.620Z,20.65
2019-05-01T20:22:23.573Z,17.77
2019-05-01T20:24:53.498Z,18.90
2019-05-01T20:27:23.429Z,18.82
2019-05-01T20:29:53.359Z,20.32
2019-05-01T20:32:26.367Z,21.73
2019-05-01T20:37:32.895Z,18.45
2019-05-01T20:40:10.861Z,19.98
2019-05-01T20:42:33.081Z,18.65
2019-05-01T20:45:05.393Z,17.67
2019-05-01T20:47:35.376Z,19.45
2019-05-01T20:50:02.937Z,18.67
2019-05-01T20:52:33.213Z,22.65
2019-05-01T20:55:03.157Z,20.37
2019-05-01T20:57:33.453Z,19.98
2019-05-01T21:00:03.376Z,20.02
2019-05-01T21:02:33.324Z,21.00
2019-05-01T21:07:42.578Z,20.48
2019-05-01T21:10:24.263Z,22.25
2019-05-01T21:12:42.791Z,24.60
2019-05-01T21:15:12.768Z,20.17
2019-05-01T21:17:44.299Z,24.52
2019-05-01T21:20:13.457Z,21.75
2019-05-01T21:22:43.523Z,24.37
2019-05-01T21:25:13.785Z,21.42
2019-05-01T21:27:44.484Z,23.22
2019-05-01T21:30:13.932Z,22.48
2019-05-01T21:32:44.347Z,22.05
2019-05-01T21:37:53.115Z,23.10
2019-05-01T21:40:23.117Z,23.65
2019-05-01T21:42:55.782Z,26.20
2019-05-01T21:45:23.216Z,23.22
2019-05-01T21:47:53.149Z,26.48
2019-05-01T21:50:26.371Z,24.82
2019-05-01T21:52:53.829Z,26.07
2019-05-01T21:55:25.633Z,27.27
2019-05-01T21:57:55.025Z,24.67
2019-05-01T22:00:24.909Z,28.17
2019-05-01T22:02:53.451Z,26.40
2019-05-01T22:05:23.378Z,27.02
2019-05-01T22:07:53.347Z,29.55
2019-05-01T22:10:26.627Z,30.65
2019-05-01T22:12:53.485Z,34.00
2019-05-01T22:18:02.770Z,30.90
2019-05-01T22:20:32.706Z,29.32
2019-05-01T22:23:02.646Z,30.80
2019-05-01T22:25:32.609Z,29.87
2019-05-01T22:28:02.550Z,29.07
2019-05-01T22:30:32.827Z,30.23
2019-05-01T22:33:02.765Z,30.02
2019-05-01T22:35:32.689Z,29.00
2019-05-01T22:38:02.625Z,35.80
2019-05-01T22:40:32.868Z,31.07
2019-05-01T22:43:03.094Z,29.72
2019-05-01T22:45:33.053Z,35.23
2019-05-01T22:48:03.024Z,27.60
2019-05-01T22:50:32.975Z,29.20
2019-05-01T22:53:02.890Z,29.40
2019-05-01T22:55:32.862Z,30.65
2019-05-01T22:58:02.779Z,29.72
2019-05-01T23:00:32.987Z,33.08
2019-05-01T23:03:05.520Z,28.65
2019-05-01T23:08:12.485Z,30.87
2019-05-01T23:10:46.904Z,29.80
2019-05-01T23:13:12.322Z,27.95
2019-05-01T23:15:42.256Z,31.48
2019-05-01T23:18:15.357Z,31.93
2019-05-01T23:20:42.437Z,34.63
2019-05-01T23:23:12.391Z,30.60
2019-05-01T23:25:42.437Z,29.37
2019-05-01T23:28:12.215Z,31.87
2019-05-01T23:33:21.509Z,30.83
2019-05-01T23:35:51.436Z,27.47
2019-05-01T23:38:21.653Z,31.60
2019-05-01T23:40:52.944Z,29.67
2019-05-01T23:43:22.948Z,26.90
2019-05-01T23:45:51.813Z,29.18
2019-05-01T23:48:21.692Z,29.20
2019-05-01T23:50:51.645Z,29.92
2019-05-01T23:53:21.582Z,27.87
2019-05-01T23:55:54.643Z,29.30
2019-05-01T23:58:21.798Z,31.48
